Archival Weather

Chicago O'Hare International

Chicago, Illinois (KORD)

Report from: Wednesday, December 28, 2022 1:51 AM CST
Current time: Friday, June 14, 2024 8:00 AM CDT

Current weather – Weather history – Daily summaries
Weather forecast

Temperature-3.3°C (26.1°F)
Wind chill-8.8°C (16.2°F)
Dew point-7.2°C (19.0°F)
Winds 9 kts (4.6 m/s, 10.4 mph) South-Southwest (200°)
Wind gusts 18 kts (9.3 m/s, 20.7 mph)
Visibility10 mi. (16.1 km)
Clouds Ceiling: Broken clouds 25,000 ft. (7,620 m)
Altimeter29.85 in.Hg (1011 mB)
Relative humidity74 %
Density altitude-2,146 ft. (-654 m)
Sea-level pressure101.2 kPa (1012 mB, 29.88 in.Hg)
Remarks Automated weather observing station with precipitation discriminator
Flight conditions Visual Meteorological Conditions
Raw dataKORD 280751Z 20009G18KT 10SM BKN250 M03/M07 A2985 RMK AO2 SLP118 T10331072
An error has occurred. This application may no longer respond until reloaded. Reload 🗙